Trussville, Alabama
Current Conditions -  °F | °C
As of 12:53 PM on Thursday 30 Oct 2014 (Local Time) from KBHM Reporting Station
Clear Clear  
Wind Chill: 64°   Ceiling: Unl
Heat Index: 64°   Visibility: 10mi
Dew Point: 35°   Wind: 7mph
Humidity: 34%   Direction: 340°NNW
Pressure: 30.1"   Gusts: NA
Location:  33.62°N, 86.6°W
Report Text: KBHM 301753Z 34006KT 10SM CLR 18/02 A3010 RMK AO2 SLP190 6//// T01780017 10183 20050 58022
Loading
Personal Weather Stations






























Interactive Weather Map New forecast layout! Learn more

10-Day Weather Forecast

Advertisements
Track Severe Weather on mobile